Time;durP1;ratioP1;P1;durP2;ratioP2;P2;SDS_P1;SDS_P2;PMS_P1;PMS_P2;Temp;Humidity;BMP_temperature;BMP_pressure;BME280_temperature;BME280_humidity;BME280_pressure;Samples;Min_cycle;Max_cycle;Signal;HPM_P1;HPM_P2
2022/07/27 05:54:19;;;;;;;7.03;5.68;;;;;;;;;;6229383;22;20092;-82
2022/07/27 05:56:45;;;;;;;7.47;6.15;;;;;;;;;;6308075;22;20015;-83
2022/07/27 05:59:10;;;;;;;6.65;5.65;;;;;;;;;;6308170;22;20010;-83
2022/07/27 06:01:37;;;;;;;6.07;5.35;;;;;;;;;;6308892;22;20034;-82
2022/07/27 06:04:03;;;;;;;5.25;4.80;;;;;;;;;;6308297;22;20004;-82
2022/07/27 09:27:42;;;;;;;3.97;3.58;;;;;;;;;;6243861;23;20020;-86
2022/07/27 09:30:13;;;;;;;5.25;3.40;;;;;;;;;;6247195;22;20043;-90
2022/07/27 09:32:51;;;;;;;4.18;3.40;;;;;;;;;;6246904;22;20125;-91
2022/07/27 09:35:28;;;;;;;3.63;3.33;;;;;;;;;;6245878;22;20084;-91
2022/07/27 09:37:55;;;;;;;5.68;3.35;;;;;;;;;;6240249;23;20454;-90
2022/07/27 09:40:23;;;;;;;3.78;3.35;;;;;;;;;;6217099;23;20370;-90
2022/07/27 09:43:12;;;;;;;3.67;3.38;;;;;;;;;;6216619;23;20009;-90
2022/07/27 09:45:42;;;;;;;3.50;3.20;;;;;;;;;;6240126;22;20008;-90
2022/07/27 09:48:11;;;;;;;3.42;3.13;;;;;;;;;;6216599;23;20005;-90
2022/07/27 09:50:39;;;;;;;;;;;;;;;;;;6240756;23;20004;-90
2022/07/27 09:53:19;;;;;;;4.03;3.70;;;;;;;;;;6216872;23;20315;-90
2022/07/27 09:55:58;;;;;;;7.35;3.75;;;;;;;;;;6216542;23;20043;-91
2022/07/27 09:59:06;;;;;;;4.47;3.53;;;;;;;;;;6216326;23;20035;-87
2022/07/27 10:01:34;;;;;;;4.53;4.13;;;;;;;;;;6213079;23;20004;-87
2022/07/27 10:04:06;;;;;;;4.25;3.55;;;;;;;;;;6214572;23;20012;-88
2022/07/27 10:06:32;;;;;;;4.20;3.80;;;;;;;;;;6216395;23;20001;-87
2022/07/27 10:08:59;;;;;;;4.65;4.10;;;;;;;;;;6216455;23;20076;-84
2022/07/27 10:11:25;;;;;;;4.63;3.78;;;;;;;;;;6216227;23;20005;-86
2022/07/27 10:13:52;;;;;;;4.43;4.03;;;;;;;;;;6216331;23;20011;-89
2022/07/27 10:16:23;;;;;;;4.47;4.07;;;;;;;;;;6216642;23;19996;-90
2022/07/27 10:19:00;;;;;;;4.45;3.78;;;;;;;;;;6240190;23;20009;-89
2022/07/27 10:21:27;;;;;;;5.15;3.83;;;;;;;;;;6239942;23;20012;-89
2022/07/27 10:23:55;;;;;;;5.15;4.65;;;;;;;;;;6216276;23;20143;-89
2022/07/27 10:26:29;;;;;;;5.15;4.25;;;;;;;;;;6214752;23;20008;-88
2022/07/27 10:29:03;;;;;;;5.35;4.78;;;;;;;;;;6216247;23;20019;-88
2022/07/27 10:31:36;;;;;;;4.97;4.55;;;;;;;;;;6216289;23;20008;-89
2022/07/27 10:34:09;;;;;;;6.22;5.45;;;;;;;;;;6216748;23;20507;-89
2022/07/27 10:36:50;;;;;;;7.72;6.03;;;;;;;;;;6214947;23;20087;-90
2022/07/27 10:39:37;;;;;;;6.30;5.25;;;;;;;;;;6234186;23;20005;-89
2022/07/27 10:42:20;;;;;;;5.93;5.10;;;;;;;;;;6210233;23;20015;-87
2022/07/27 10:45:13;;;;;;;6.10;5.50;;;;;;;;;;6216780;23;20009;-89
2022/07/27 10:47:43;;;;;;;6.72;4.93;;;;;;;;;;6238742;23;20063;-89
2022/07/27 10:50:15;;;;;;;6.57;5.35;;;;;;;;;;6241980;23;20317;-90
2022/07/27 10:52:51;;;;;;;5.82;4.95;;;;;;;;;;6218508;23;20001;-90
2022/07/27 10:55:28;;;;;;;5.25;4.68;;;;;;;;;;6218407;23;20005;-89
2022/07/27 10:57:55;;;;;;;5.32;4.82;;;;;;;;;;6218528;23;20009;-90
2022/07/27 11:00:49;;;;;;;4.82;4.43;;;;;;;;;;6242417;23;20096;-90
2022/07/27 11:03:32;;;;;;;5.10;4.60;;;;;;;;;;6242201;23;20015;-90
2022/07/27 11:06:01;;;;;;;7.40;5.30;;;;;;;;;;6218299;22;20007;-90
2022/07/27 11:08:30;;;;;;;6.05;5.45;;;;;;;;;;6242191;23;20001;-90
2022/07/27 11:10:56;;;;;;;7.13;6.13;;;;;;;;;;6216845;23;20005;-90
2022/07/27 11:13:23;;;;;;;6.68;6.05;;;;;;;;;;6242296;23;20015;-90
2022/07/27 11:15:54;;;;;;;7.07;5.88;;;;;;;;;;6242042;23;20384;-90
2022/07/27 11:18:30;;;;;;;7.55;5.53;;;;;;;;;;6218242;23;20015;-90
2022/07/27 11:21:18;;;;;;;6.20;5.60;;;;;;;;;;6220682;23;20000;-90
2022/07/27 11:23:45;;;;;;;6.15;5.55;;;;;;;;;;6217999;23;20016;-89
2022/07/27 11:26:11;;;;;;;6.55;5.95;;;;;;;;;;6218993;23;20004;-90
2022/07/27 11:28:38;;;;;;;6.50;5.85;;;;;;;;;;6219512;23;20032;-90
2022/07/27 11:31:05;;;;;;;10.35;6.10;;;;;;;;;;6218652;23;20000;-87
2022/07/27 11:33:31;;;;;;;8.05;5.80;;;;;;;;;;6217580;22;19997;-86
2022/07/27 11:36:06;;;;;;;5.85;5.20;;;;;;;;;;6217986;23;20009;-87
2022/07/27 11:38:48;;;;;;;5.63;5.05;;;;;;;;;;6217819;23;20080;-85
2022/07/27 11:41:25;;;;;;;6.60;5.90;;;;;;;;;;6217536;23;19996;-88
2022/07/27 11:43:52;;;;;;;6.55;5.97;;;;;;;;;;6217415;23;20011;-88
2022/07/27 17:00:35;;;;;;;4.65;4.25;;;;;;;;;;6314686;22;20022;-81
2022/07/27 17:03:00;;;;;;;13.85;5.82;;;;;;;;;;6309430;22;20015;-89
2022/07/27 17:05:26;;;;;;;4.57;3.97;;;;;;;;;;6309378;22;20007;-83
2022/07/27 17:07:51;;;;;;;5.60;4.57;;;;;;;;;;6309033;22;20323;-81
2022/07/27 17:10:17;;;;;;;4.78;4.13;;;;;;;;;;6308686;22;20425;-83
2022/07/27 17:12:42;;;;;;;4.90;4.50;;;;;;;;;;6308924;22;20058;-86
2022/07/27 17:15:08;;;;;;;4.88;4.40;;;;;;;;;;6308737;22;20412;-83
2022/07/27 17:17:34;;;;;;;5.82;5.07;;;;;;;;;;6309068;22;20066;-86
2022/07/27 17:19:59;;;;;;;23.30;18.00;;;;;;;;;;6308374;22;20007;-82
2022/07/27 17:22:24;;;;;;;23.55;18.45;;;;;;;;;;6308829;22;20003;-88
2022/07/27 17:24:50;;;;;;;13.20;10.68;;;;;;;;;;6308699;22;20078;-83
2022/07/27 17:27:16;;;;;;;6.40;5.80;;;;;;;;;;6308340;22;20010;-86
2022/07/27 17:29:43;;;;;;;5.20;4.80;;;;;;;;;;6308940;22;20035;-93
2022/07/27 17:32:09;;;;;;;5.00;4.57;;;;;;;;;;6307635;22;20058;-84
2022/07/27 17:34:34;;;;;;;4.90;4.40;;;;;;;;;;6309018;22;20003;-88
2022/07/27 17:37:00;;;;;;;5.13;4.63;;;;;;;;;;6308840;22;20004;-88
2022/07/27 17:39:27;;;;;;;4.55;4.07;;;;;;;;;;6307048;22;20410;-84
2022/07/27 17:41:54;;;;;;;5.85;4.60;;;;;;;;;;6308567;22;20443;-88
2022/07/27 17:44:20;;;;;;;6.18;5.05;;;;;;;;;;6308821;22;20010;-88
2022/07/27 17:46:46;;;;;;;5.78;5.28;;;;;;;;;;6308542;22;19999;-87
2022/07/27 17:49:11;;;;;;;5.45;4.50;;;;;;;;;;6308551;22;20086;-86
2022/07/27 17:51:36;;;;;;;5.32;4.82;;;;;;;;;;6306850;22;20007;-86
2022/07/27 17:54:02;;;;;;;6.10;5.60;;;;;;;;;;6308219;22;19999;-88
2022/07/27 17:56:29;;;;;;;5.95;5.35;;;;;;;;;;6308422;22;20007;-87
2022/07/27 17:58:54;;;;;;;5.82;5.32;;;;;;;;;;6308115;22;20000;-87
2022/07/27 18:01:20;;;;;;;5.30;4.80;;;;;;;;;;6308592;22;20018;-85
2022/07/27 18:03:45;;;;;;;6.07;4.32;;;;;;;;;;6308020;22;20011;-86
2022/07/27 18:06:11;;;;;;;4.45;4.05;;;;;;;;;;6308428;22;20406;-86
2022/07/27 18:08:36;;;;;;;5.43;4.45;;;;;;;;;;6308411;22;20418;-89
2022/07/27 18:11:02;;;;;;;5.57;4.90;;;;;;;;;;6306162;22;20004;-90
2022/07/27 18:13:27;;;;;;;6.45;4.90;;;;;;;;;;6307537;22;20007;-86
2022/07/27 18:15:54;;;;;;;5.55;4.53;;;;;;;;;;6306656;22;20010;-86
2022/07/27 18:18:21;;;;;;;5.15;4.65;;;;;;;;;;6307881;22;20007;-85
2022/07/27 18:20:50;;;;;;;5.03;4.50;;;;;;;;;;6307944;22;20003;-85
2022/07/27 18:23:17;;;;;;;5.22;4.72;;;;;;;;;;6332045;22;20442;-85
2022/07/27 18:25:43;;;;;;;18.35;11.95;;;;;;;;;;6307664;22;20052;-85
2022/07/27 18:28:09;;;;;;;21.52;13.57;;;;;;;;;;6307726;22;20483;-84
2022/07/27 18:30:34;;;;;;;10.43;7.95;;;;;;;;;;6307677;22;20071;-88
2022/07/27 18:33:00;;;;;;;6.25;5.05;;;;;;;;;;6307890;22;20086;-86
2022/07/27 18:35:25;;;;;;;5.40;4.78;;;;;;;;;;6307926;22;20003;-85
2022/07/27 18:37:51;;;;;;;5.32;4.75;;;;;;;;;;6307477;22;20023;-88
2022/07/27 18:40:17;;;;;;;6.70;4.68;;;;;;;;;;6307647;22;20406;-87
2022/07/27 18:42:43;;;;;;;6.07;5.45;;;;;;;;;;6306064;22;20064;-83
2022/07/27 18:45:09;;;;;;;5.40;4.90;;;;;;;;;;6308183;22;20414;-86
2022/07/27 18:47:37;;;;;;;5.88;5.38;;;;;;;;;;6306988;22;20129;-88
2022/07/27 18:50:04;;;;;;;4.50;4.10;;;;;;;;;;6307799;22;20010;-83
2022/07/27 18:52:30;;;;;;;5.63;4.32;;;;;;;;;;6307998;22;19999;-83
2022/07/27 18:54:55;;;;;;;6.95;5.72;;;;;;;;;;6307923;22;20457;-84
2022/07/27 18:57:21;;;;;;;5.70;5.10;;;;;;;;;;6306341;22;20010;-84
2022/07/27 18:59:47;;;;;;;5.13;4.63;;;;;;;;;;6307944;22;20026;-84
2022/07/27 19:02:13;;;;;;;6.38;5.78;;;;;;;;;;6309776;22;20015;-88
2022/07/27 19:04:39;;;;;;;6.15;5.55;;;;;;;;;;6310585;22;20056;-86
2022/07/27 19:07:05;;;;;;;7.38;6.22;;;;;;;;;;6309935;22;20003;-84
2022/07/27 19:09:30;;;;;;;6.15;5.55;;;;;;;;;;6310332;22;20007;-88
2022/07/27 19:11:56;;;;;;;5.38;4.85;;;;;;;;;;6310438;22;20078;-90
2022/07/27 19:14:24;;;;;;;5.65;5.15;;;;;;;;;;6310559;22;20011;-90
2022/07/27 19:16:50;;;;;;;5.07;4.27;;;;;;;;;;6310499;22;20056;-89
2022/07/27 19:19:15;;;;;;;6.72;5.63;;;;;;;;;;6310164;22;20452;-87
2022/07/27 19:21:41;;;;;;;5.60;5.10;;;;;;;;;;6310021;22;19999;-89
2022/07/27 19:24:06;;;;;;;5.30;4.80;;;;;;;;;;6309939;22;20003;-88
2022/07/27 19:26:32;;;;;;;5.13;4.63;;;;;;;;;;6309636;22;20006;-88
2022/07/27 19:28:57;;;;;;;5.68;5.03;;;;;;;;;;6310122;22;20000;-89
2022/07/27 19:31:23;;;;;;;5.38;4.38;;;;;;;;;;6310017;22;20026;-91
2022/07/27 19:33:51;;;;;;;5.70;5.10;;;;;;;;;;6310860;22;20015;-88
2022/07/27 19:36:17;;;;;;;5.95;4.63;;;;;;;;;;6311082;22;20004;-89
2022/07/27 19:38:42;;;;;;;5.53;4.90;;;;;;;;;;6310688;22;20082;-91
2022/07/27 19:41:08;;;;;;;5.18;4.68;;;;;;;;;;6309340;22;20003;-92
2022/07/27 19:43:33;;;;;;;5.43;4.85;;;;;;;;;;6309964;22;20106;-87
2022/07/27 19:45:59;;;;;;;5.03;4.45;;;;;;;;;;6308042;22;20010;-88
2022/07/27 19:48:26;;;;;;;4.90;4.40;;;;;;;;;;6309464;22;20355;-83
2022/07/27 19:50:52;;;;;;;5.97;4.80;;;;;;;;;;6309781;22;20370;-85
2022/07/27 19:53:18;;;;;;;6.22;5.63;;;;;;;;;;6309587;22;20003;-86
2022/07/27 19:55:43;;;;;;;5.45;4.95;;;;;;;;;;6309821;22;20003;-89
2022/07/27 19:58:09;;;;;;;5.60;4.40;;;;;;;;;;6309678;22;20011;-87
2022/07/27 20:00:34;;;;;;;5.25;4.63;;;;;;;;;;6309622;22;20359;-87
2022/07/27 20:03:00;;;;;;;5.85;4.85;;;;;;;;;;6309291;22;20014;-85
2022/07/27 20:05:26;;;;;;;4.85;4.45;;;;;;;;;;6307780;22;20014;-85
2022/07/27 20:07:51;;;;;;;8.48;6.60;;;;;;;;;;6309096;22;20315;-85
2022/07/27 20:10:17;;;;;;;9.40;5.90;;;;;;;;;;6309074;22;20026;-86
2022/07/27 20:12:43;;;;;;;6.55;5.95;;;;;;;;;;6309050;22;19999;-87
2022/07/27 20:15:08;;;;;;;6.40;5.80;;;;;;;;;;6308222;22;20056;-85
2022/07/27 20:17:37;;;;;;;5.45;4.95;;;;;;;;;;6309120;22;20026;-85
2022/07/27 20:20:04;;;;;;;5.70;4.95;;;;;;;;;;6309249;22;20007;-86
2022/07/27 20:22:30;;;;;;;6.80;5.70;;;;;;;;;;6309064;22;20003;-85
2022/07/27 20:24:56;;;;;;;5.78;4.93;;;;;;;;;;6309612;22;20003;-86
2022/07/27 20:27:22;;;;;;;7.47;5.47;;;;;;;;;;6309330;22;20079;-85
2022/07/27 20:29:48;;;;;;;10.55;6.68;;;;;;;;;;6309043;22;20011;-84
2022/07/27 20:32:14;;;;;;;6.50;5.50;;;;;;;;;;6309103;22;20007;-85
2022/07/27 20:34:39;;;;;;;11.02;5.90;;;;;;;;;;6309086;22;20081;-85
2022/07/27 20:37:04;;;;;;;12.02;6.35;;;;;;;;;;6308774;22;20007;-85
2022/07/27 20:39:30;;;;;;;17.35;7.50;;;;;;;;;;6309509;22;20318;-84
2022/07/27 20:41:56;;;;;;;17.50;8.20;;;;;;;;;;6309002;22;20003;-84
2022/07/27 20:44:21;;;;;;;11.82;7.25;;;;;;;;;;6309386;22;20010;-85
2022/07/27 20:46:47;;;;;;;15.20;7.45;;;;;;;;;;6307531;22;20090;-85
2022/07/27 20:49:13;;;;;;;15.25;7.82;;;;;;;;;;6308831;22;20003;-85
2022/07/27 20:51:40;;;;;;;11.43;5.25;;;;;;;;;;6308855;22;20003;-84
2022/07/27 20:54:06;;;;;;;11.95;5.25;;;;;;;;;;6308768;22;20430;-84
2022/07/27 20:56:31;;;;;;;12.30;6.10;;;;;;;;;;6308758;22;20005;-85
2022/07/27 20:58:57;;;;;;;6.88;3.92;;;;;;;;;;6308720;22;20004;-84
2022/07/27 21:01:22;;;;;;;9.68;3.95;;;;;;;;;;6308893;22;20081;-85
2022/07/27 21:03:48;;;;;;;7.95;3.47;;;;;;;;;;6308596;22;20467;-85
2022/07/27 21:06:13;;;;;;;8.13;4.50;;;;;;;;;;6308674;22;20025;-81
2022/07/27 21:08:39;;;;;;;5.53;3.22;;;;;;;;;;6308679;22;20433;-84
2022/07/27 21:11:05;;;;;;;6.28;3.90;;;;;;;;;;6308700;22;20003;-82
2022/07/27 21:13:30;;;;;;;3.88;2.45;;;;;;;;;;6308468;22;20007;-84
2022/07/27 21:15:56;;;;;;;3.95;2.40;;;;;;;;;;6308748;22;20031;-84
2022/07/27 21:18:21;;;;;;;7.03;3.28;;;;;;;;;;6308438;22;19995;-82
2022/07/27 21:20:47;;;;;;;6.80;4.10;;;;;;;;;;6308257;22;19999;-80
